^^
Saratoga-Weather Station Historical Data
Daily Summary for January 19, 2022 Units:  English    Metric   Both
Daily Weekly Monthly Yearly Custom
  High: Low: Average:
Temperature: 40.3 °F 30.7 °F 35.8 °F
Dew Point: 37.2 °F 29.3 °F 34 °F
Humidity: 96% 85% 94%
Wind Speed: 12.1mph 0mph 2.2mph
Wind Gust: 14mph - -
Wind- - SW
Pressure: 30.5 in 30.2 in -
Precipitation: 0.06 in    
Historical Graphs
 
 
Tabular Data for January 19, 2022
Time Temperature Dew Point Pressure Wind Wind Speed Wind Gust Humidity Rainfall Rate (Hourly) solar
00:03 40.1 °F 36.3 °F 30.5 in ENE 2 mph 4 mph 86% 0 in 0 W/m2
00:08 40.1 °F 36 °F 30.5 in ENE 4.9 mph 7 mph 85% 0 in 0 W/m2
00:13 40.3 °F 36.1 °F 30.5 in ESE 8.9 mph 9 mph 85% 0 in 0 W/m2
00:18 40.3 °F 36.1 °F 30.5 in ENE 4 mph 6 mph 85% 0 in 0 W/m2
00:23 40.3 °F 36.1 °F 30.5 in East 4 mph 7 mph 85% 0 in 0 W/m2
00:28 40.1 °F 36 °F 30.5 in SE 2 mph 6 mph 85% 0 in 0 W/m2
00:33 40.1 °F 36 °F 30.5 in ESE 2 mph 7 mph 85% 0 in 0 W/m2
00:38 39.9 °F 35.8 °F 30.5 in ESE 2 mph 4 mph 85% 0 in 0 W/m2
00:43 39.9 °F 35.8 °F 30.5 in ESE 4 mph 10 mph 85% 0 in 0 W/m2
00:48 39.7 °F 35.6 °F 30.5 in ENE 2.9 mph 3 mph 85% 0 in 0 W/m2
00:53 39.7 °F 35.6 °F 30.5 in ESE 0.9 mph 5 mph 85% 0 in 0 W/m2
00:58 39.6 °F 35.4 °F 30.5 in ESE 4 mph 5 mph 85% 0 in 0 W/m2
01:03 39.6 °F 35.8 °F 30.5 in ESE 0.9 mph 6 mph 86% 0 in 0 W/m2
01:08 39.6 °F 35.8 °F 30.5 in East 0.9 mph 4 mph 86% 0 in 0 W/m2
01:13 39.4 °F 35.6 °F 30.5 in East 2.9 mph 7 mph 86% 0 in 0 W/m2
01:18 39.2 °F 35.4 °F 30.5 in ESE 0.9 mph 9 mph 86% 0 in 0 W/m2
01:23 39 °F 35.2 °F 30.4 in ENE 2.9 mph 6 mph 86% 0 in 0 W/m2
01:28 39 °F 35.2 °F 30.4 in ENE 2 mph 9 mph 86% 0 in 0 W/m2
01:33 38.8 °F 35.1 °F 30.4 in ENE 2 mph 5 mph 86% 0 in 0 W/m2
01:38 38.7 °F 34.9 °F 30.4 in East 2.9 mph 3 mph 86% 0 in 0 W/m2
01:43 38.5 °F 34.7 °F 30.4 in ESE 0.9 mph 4 mph 86% 0 in 0 W/m2
01:48 38.1 °F 34.5 °F 30.4 in Calm     87% 0 in 0 W/m2
01:53 37.9 °F 34.3 °F 30.4 in Calm   3 mph 87% 0 in 0 W/m2
01:58 37.6 °F 34 °F 30.4 in ESE 2 mph 4 mph 87% 0 in 0 W/m2
02:03 37.2 °F 34 °F 30.4 in ESE 2 mph 6 mph 88% 0 in 0 W/m2
02:08 37 °F 33.8 °F 30.4 in Calm   1 mph 88% 0 in 0 W/m2
02:13 36.9 °F 33.6 °F 30.4 in Calm   6 mph 88% 0 in 0 W/m2
02:19 36.3 °F 33.1 °F 30.4 in Calm     88% 0 in 0 W/m2
02:24 36.1 °F 33.3 °F 30.4 in Calm     89% 0 in 0 W/m2
02:29 35.8 °F 32.9 °F 30.4 in Calm     89% 0 in 0 W/m2
02:34 35.4 °F 32.7 °F 30.4 in Calm     90% 0 in 0 W/m2
02:39 35.2 °F 32.5 °F 30.4 in Calm     90% 0 in 0 W/m2
02:44 35.1 °F 32.4 °F 30.4 in Calm     90% 0 in 0 W/m2
02:49 34.7 °F 32 °F 30.4 in Calm     90% 0 in 0 W/m2
02:54 34.3 °F 32 °F 30.4 in ESE 0.9 mph 2 mph 91% 0 in 0 W/m2
02:59 34.3 °F 32 °F 30.4 in Calm     91% 0 in 0 W/m2
03:04 34.2 °F 31.8 °F 30.4 in Calm   2 mph 91% 0 in 0 W/m2
03:09 34 °F 31.6 °F 30.4 in Calm     91% 0 in 0 W/m2
03:14 33.8 °F 31.6 °F 30.4 in Calm     92% 0 in 0 W/m2
03:19 33.6 °F 31.5 °F 30.4 in Calm     92% 0 in 0 W/m2
03:24 33.4 °F 31.3 °F 30.4 in Calm     92% 0 in 0 W/m2
03:29 33.3 °F 31.1 °F 30.4 in Calm     92% 0 in 0 W/m2
03:34 33.1 °F 31.1 °F 30.4 in Calm     92% 0 in 0 W/m2
03:39 32.7 °F 30.7 °F 30.4 in Calm     92% 0 in 0 W/m2
03:44 32.5 °F 30.6 °F 30.4 in Calm     92% 0 in 0 W/m2
03:49 32.4 °F 30.4 °F 30.4 in Calm     92% 0 in 0 W/m2
03:54 32 °F 30 °F 30.4 in Calm     92% 0 in 0 W/m2
03:59 31.8 °F 30 °F 30.4 in Calm     93% 0 in 0 W/m2
04:04 31.6 °F 29.8 °F 30.4 in Calm     93% 0 in 0 W/m2
04:09 31.6 °F 29.8 °F 30.4 in Calm     93% 0 in 0 W/m2
04:14 31.6 °F 29.8 °F 30.4 in Calm     93% 0 in 0 W/m2
04:19 31.6 °F 29.8 °F 30.4 in Calm     93% 0 in 0 W/m2
04:24 31.5 °F 29.7 °F 30.4 in Calm     93% 0 in 0 W/m2
04:29 31.5 °F 30 °F 30.4 in Calm     94% 0 in 0 W/m2
04:34 31.5 °F 30 °F 30.4 in Calm     94% 0 in 0 W/m2
04:39 31.5 °F 30 °F 30.4 in Calm     94% 0 in 0 W/m2
04:44 31.3 °F 29.8 °F 30.4 in Calm     94% 0 in 0 W/m2
04:49 31.3 °F 29.8 °F 30.4 in Calm     94% 0 in 0 W/m2
04:54 31.3 °F 29.8 °F 30.4 in Calm     94% 0 in 0 W/m2
04:59 31.3 °F 29.8 °F 30.4 in Calm     94% 0 in 0 W/m2
05:04 31.1 °F 29.7 °F 30.4 in Calm     94% 0 in 0 W/m2
05:09 30.9 °F 29.5 °F 30.4 in Calm     94% 0 in 0 W/m2
05:14 30.9 °F 29.5 °F 30.4 in Calm     94% 0 in 0 W/m2
05:19 30.9 °F 29.5 °F 30.4 in Calm     94% 0 in 0 W/m2
05:24 30.9 °F 29.5 °F 30.4 in Calm     94% 0 in 0 W/m2
05:29 30.7 °F 29.3 °F 30.4 in Calm     94% 0 in 0 W/m2
05:34 30.7 °F 29.5 °F 30.4 in Calm     95% 0 in 0 W/m2
05:39 30.7 °F 29.5 °F 30.4 in Calm     95% 0 in 0 W/m2
05:44 30.7 °F 29.3 °F 30.4 in Calm     94% 0 in 0 W/m2
05:49 30.7 °F 29.5 °F 30.4 in Calm     95% 0 in 0 W/m2
05:54 30.7 °F 29.5 °F 30.4 in Calm     95% 0 in 0 W/m2
05:59 30.7 °F 29.5 °F 30.4 in Calm     95% 0 in 0 W/m2
06:04 30.9 °F 29.7 °F 30.4 in ESE 1 mph 1 mph 95% 0 in 0 W/m2
06:09 31.1 °F 29.8 °F 30.4 in Calm     95% 0 in 0 W/m2
06:14 31.3 °F 30 °F 30.4 in Calm     95% 0 in 0 W/m2
06:19 31.3 °F 30 °F 30.4 in Calm     95% 0 in 0 W/m2
06:24 31.5 °F 30.2 °F 30.4 in Calm     95% 0 in 0 W/m2
06:29 31.5 °F 30.2 °F 30.4 in Calm     95% 0 in 0 W/m2
06:34 31.5 °F 30.2 °F 30.4 in Calm   1 mph 95% 0 in 0 W/m2
06:39 31.6 °F 30.4 °F 30.4 in Calm     95% 0 in 0 W/m2
06:44 31.6 °F 30.4 °F 30.4 in Calm     95% 0 in 0 W/m2
06:49 31.8 °F 30.6 °F 30.4 in Calm     95% 0 in 0 W/m2
06:54 31.8 °F 30.6 °F 30.4 in ESE 0.9 mph 2 mph 95% 0 in 0 W/m2
06:59 31.8 °F 30.6 °F 30.4 in ESE 0.9 mph 1 mph 95% 0 in 0 W/m2
07:04 31.8 °F 30.6 °F 30.4 in ESE 2 mph 2 mph 95% 0 in 0 W/m2
07:09 31.8 °F 30.6 °F 30.4 in Calm     95% 0 in 0 W/m2
07:14 31.8 °F 30.6 °F 30.4 in Calm     95% 0 in 0 W/m2
07:19 32 °F 30.7 °F 30.4 in Calm     95% 0 in 0 W/m2
07:24 32.2 °F 30.9 °F 30.3 in Calm     95% 0 in 0 W/m2
07:29 32.4 °F 31.1 °F 30.3 in Calm     95% 0 in 0 W/m2
07:34 32.5 °F 31.5 °F 30.4 in Calm   2 mph 96% 0 in 0 W/m2
07:39 32.7 °F 31.6 °F 30.4 in Calm   2 mph 96% 0 in 0 W/m2
07:44 33.1 °F 32 °F 30.3 in Calm   2 mph 96% 0 in 0 W/m2
07:49 33.1 °F 32 °F 30.3 in Calm   2 mph 96% 0 in 0 W/m2
07:54 33.3 °F 32 °F 30.3 in Calm   1 mph 95% 0 in 0 W/m2
07:59 33.3 °F 32 °F 30.3 in Calm   4 mph 95% 0 in 0 W/m2
08:04 33.4 °F 32.2 °F 30.3 in Calm   2 mph 95% 0 in 0 W/m2
08:09 33.6 °F 32.4 °F 30.3 in Calm   4 mph 95% 0 in 0 W/m2
08:14 33.6 °F 32.4 °F 30.3 in East 2 mph 3 mph 95% 0 in 0 W/m2
08:19 33.8 °F 32.2 °F 30.3 in Calm   1 mph 94% 0 in 0 W/m2
08:24 34 °F 32.4 °F 30.3 in Calm     94% 0 in 0 W/m2
08:29 34 °F 32.4 °F 30.3 in NE 2 mph 2 mph 94% 0 in 0 W/m2
08:34 34.2 °F 32.5 °F 30.3 in NE 2 mph 2 mph 94% 0 in 0 W/m2
08:39 34.2 °F 32.4 °F 30.3 in Calm   2 mph 93% 0 in 0 W/m2
08:44 34.2 °F 32.4 °F 30.3 in East 2 mph 3 mph 93% 0 in 0 W/m2
08:49 34.2 °F 32.4 °F 30.3 in ESE 2 mph 4 mph 93% 0 in 0 W/m2
08:54 34 °F 32.2 °F 30.3 in ESE 2 mph 4 mph 93% 0 in 0 W/m2
08:59 33.8 °F 32 °F 30.3 in Calm   1 mph 93% 0 in 5 W/m2
09:04 33.6 °F 31.8 °F 30.3 in ESE 0.9 mph 2 mph 93% 0 in 5 W/m2
09:09 33.4 °F 31.6 °F 30.3 in ESE 0.9 mph 3 mph 93% 0 in 5 W/m2
09:14 33.3 °F 31.5 °F 30.3 in ESE 2.9 mph 3 mph 93% 0 in 5 W/m2
09:19 33.3 °F 31.6 °F 30.3 in East 0.9 mph 2 mph 94% 0 in 5 W/m2
09:24 33.3 °F 31.6 °F 30.3 in East 2 mph 4 mph 94% 0 in 7 W/m2
09:29 33.1 °F 31.5 °F 30.3 in ESE 2 mph 4 mph 94% 0 in 7 W/m2
09:34 33.1 °F 31.5 °F 30.3 in East 0.9 mph 2 mph 94% 0 in 7 W/m2
09:39 33.1 °F 31.5 °F 30.3 in ESE 2.9 mph 4 mph 94% 0 in 7 W/m2
09:44 33.1 °F 31.5 °F 30.3 in East 2 mph 4 mph 94% 0 in 9 W/m2
09:50 33.1 °F 31.5 °F 30.3 in Calm   2 mph 94% 0 in 9 W/m2
09:55 33.1 °F 31.5 °F 30.3 in East 0.9 mph 3 mph 94% 0 in 11 W/m2
10:00 33.1 °F 31.8 °F 30.3 in ENE 2 mph 3 mph 95% 0 in 9 W/m2
10:05 33.1 °F 31.8 °F 30.3 in ENE 2 mph 3 mph 95% 0 in 9 W/m2
10:10 33.3 °F 32 °F 30.3 in ENE 2 mph 4 mph 95% 0 in 11 W/m2
10:15 33.4 °F 32.2 °F 30.3 in ESE 2.9 mph 3 mph 95% 0 in 12 W/m2
10:20 33.4 °F 32.2 °F 30.3 in Calm     95% 0 in 12 W/m2
10:25 33.8 °F 32.5 °F 30.3 in Calm   3 mph 95% 0 in 12 W/m2
10:30 34.2 °F 32.9 °F 30.3 in Calm   2 mph 95% 0 in 18 W/m2
10:35 34.3 °F 33.1 °F 30.3 in West 0.9 mph 6 mph 95% 0 in 14 W/m2
10:40 34.3 °F 33.1 °F 30.3 in Calm   3 mph 95% 0 in 16 W/m2
10:45 34.5 °F 33.3 °F 30.3 in NNW 0.9 mph 6 mph 95% 0 in 19 W/m2
10:50 34.5 °F 33.3 °F 30.3 in Calm   2 mph 95% 0 in 21 W/m2
10:55 34.7 °F 33.4 °F 30.3 in Calm   6 mph 95% 0 in 18 W/m2
11:00 34.9 °F 33.6 °F 30.3 in SE 2 mph 3 mph 95% 0 in 16 W/m2
11:05 34.9 °F 33.6 °F 30.3 in Calm   7 mph 95% 0 in 19 W/m2
11:10 34.9 °F 33.6 °F 30.3 in Calm   4 mph 95% 0 in 19 W/m2
11:15 34.9 °F 33.6 °F 30.3 in WSW 2 mph 3 mph 95% 0 in 21 W/m2
11:20 34.9 °F 33.6 °F 30.3 in Calm     95% 0 in 19 W/m2
11:25 34.9 °F 33.6 °F 30.3 in WNW 2 mph 5 mph 95% 0 in 19 W/m2
11:30 34.9 °F 33.6 °F 30.3 in Calm   2 mph 95% 0 in 16 W/m2
11:35 34.9 °F 33.6 °F 30.3 in Calm   5 mph 95% 0 in 16 W/m2
11:40 35.1 °F 33.8 °F 30.3 in WNW 0.9 mph 1 mph 95% 0 in 14 W/m2
11:45 35.1 °F 33.8 °F 30.3 in Calm     95% 0 in 18 W/m2
11:50 35.1 °F 33.8 °F 30.3 in Calm   2 mph 95% 0 in 25 W/m2
11:55 35.1 °F 33.8 °F 30.3 in West 2.9 mph 3 mph 95% 0 in 26 W/m2
12:00 35.1 °F 33.8 °F 30.3 in Calm   3 mph 95% 0 in 26 W/m2
12:05 35.1 °F 33.8 °F 30.3 in Calm   3 mph 95% 0 in 26 W/m2
12:10 35.2 °F 34 °F 30.3 in ESE 2.9 mph 5 mph 95% 0 in 25 W/m2
12:15 35.2 °F 34 °F 30.3 in East 2 mph 3 mph 95% 0 in 21 W/m2
12:20 35.2 °F 34 °F 30.3 in NW 4.9 mph 9 mph 95% 0 in 21 W/m2
12:25 35.2 °F 34 °F 30.3 in WNW 2 mph 4 mph 95% 0 in 23 W/m2
12:30 35.2 °F 34 °F 30.3 in Calm   2 mph 95% 0 in 26 W/m2
12:35 35.4 °F 34.2 °F 30.3 in ESE 2.9 mph 3 mph 95% 0 in 21 W/m2
12:40 35.4 °F 34.2 °F 30.3 in SSE 2 mph 3 mph 95% 0 in 21 W/m2
12:45 35.4 °F 34.2 °F 30.3 in Calm   2 mph 95% 0 in 21 W/m2
12:50 35.6 °F 34.3 °F 30.3 in Calm   1 mph 95% 0 in 21 W/m2
12:55 35.6 °F 34.5 °F 30.3 in WNW 0.9 mph 4 mph 96% 0 in 23 W/m2
13:01 35.6 °F 34.3 °F 30.3 in WNW 4 mph 4 mph 95% 0 in 21 W/m2
13:06 35.8 °F 34.5 °F 30.3 in NE 2.9 mph 3 mph 95% 0 in 21 W/m2
13:11 35.8 °F 34.5 °F 30.3 in NE 2 mph 3 mph 95% 0 in 19 W/m2
13:16 36 °F 34.7 °F 30.3 in NW 2 mph 6 mph 95% 0 in 23 W/m2
13:21 36 °F 34.9 °F 30.3 in NNW 2 mph 3 mph 96% 0 in 26 W/m2
13:26 36 °F 34.9 °F 30.3 in Calm   4 mph 96% 0 in 28 W/m2
13:31 36.1 °F 35.1 °F 30.3 in WNW 2 mph 3 mph 96% 0 in 32 W/m2
13:36 36.1 °F 35.1 °F 30.3 in Calm   3 mph 96% 0.01 in 26 W/m2
13:41 36.1 °F 35.1 °F 30.3 in Calm   2 mph 96% 0.01 in 14 W/m2
13:46 36.1 °F 34.9 °F 30.3 in NW 0.9 mph 3 mph 95% 0.01 in 11 W/m2
13:51 36.3 °F 35.1 °F 30.3 in SSW 2 mph 4 mph 95% 0.01 in 19 W/m2
13:56 36.3 °F 35.1 °F 30.3 in WNW 0.9 mph 4 mph 95% 0.01 in 18 W/m2
14:01 36.3 °F 35.2 °F 30.3 in Calm   3 mph 96% 0.01 in 23 W/m2
14:06 36.5 °F 35.4 °F 30.3 in WNW 0.9 mph 2 mph 96% 0.01 in 12 W/m2
14:11 36.5 °F 35.4 °F 30.3 in NW 2.9 mph 4 mph 96% 0.01 in 11 W/m2
14:16 36.5 °F 35.4 °F 30.3 in WNW 0.9 mph 3 mph 96% 0.01 in 11 W/m2
14:21 36.5 °F 35.4 °F 30.3 in WNW 2 mph 4 mph 96% 0.01 in 11 W/m2
14:26 36.7 °F 35.6 °F 30.3 in WNW 4 mph 4 mph 96% 0.01 in 12 W/m2
14:31 36.7 °F 35.4 °F 30.3 in Calm   1 mph 95% 0.01 in 12 W/m2
14:36 36.7 °F 35.4 °F 30.3 in WNW 4.9 mph 5 mph 95% 0.01 in 11 W/m2
14:41 36.7 °F 35.4 °F 30.3 in WNW 2.9 mph 4 mph 95% 0.01 in 14 W/m2
14:46 36.7 °F 35.4 °F 30.3 in ENE 4 mph 4 mph 95% 0.01 in 21 W/m2
14:51 36.9 °F 35.6 °F 30.3 in WNW 6.9 mph 7 mph 95% 0.01 in 19 W/m2
14:56 36.9 °F 35.6 °F 30.3 in Calm   3 mph 95% 0.01 in 16 W/m2
15:01 36.9 °F 35.6 °F 30.3 in West 2.9 mph 6 mph 95% 0.01 in 21 W/m2
15:06 36.9 °F 35.6 °F 30.3 in NW 4 mph 7 mph 95% 0.01 in 23 W/m2
15:11 36.9 °F 35.6 °F 30.3 in NNW 6 mph 6 mph 95% 0.01 in 16 W/m2
15:16 36.9 °F 35.6 °F 30.3 in WNW 0.9 mph 7 mph 95% 0.01 in 19 W/m2
15:21 36.9 °F 35.6 °F 30.3 in WNW 4 mph 8 mph 95% 0.01 in 16 W/m2
15:26 36.9 °F 35.6 °F 30.3 in NNW 6 mph 7 mph 95% 0.01 in 18 W/m2
15:31 36.9 °F 35.6 °F 30.3 in WNW 4 mph 11 mph 95% 0.01 in 19 W/m2
15:36 36.9 °F 35.6 °F 30.3 in WNW 2.9 mph 9 mph 95% 0 in 12 W/m2
15:41 36.9 °F 35.6 °F 30.3 in WNW 2.9 mph 11 mph 95% 0 in 16 W/m2
15:46 36.9 °F 35.6 °F 30.3 in WSW 2.9 mph 4 mph 95% 0 in 11 W/m2
15:51 36.9 °F 35.2 °F 30.3 in WSW 4.9 mph 7 mph 94% 0 in 11 W/m2
15:56 36.7 °F 35.1 °F 30.3 in WNW 2 mph 5 mph 94% 0 in 18 W/m2
16:01 36.7 °F 35.4 °F 30.3 in West 0.9 mph 2 mph 95% 0 in 12 W/m2
16:06 36.7 °F 35.4 °F 30.3 in WNW 0.9 mph 6 mph 95% 0 in 11 W/m2
16:11 36.7 °F 35.4 °F 30.3 in WNW 2 mph 4 mph 95% 0.01 in 11 W/m2
16:16 36.7 °F 35.4 °F 30.3 in WSW 4.9 mph 7 mph 95% 0.01 in 16 W/m2
16:21 36.7 °F 35.4 °F 30.3 in WSW 4 mph 8 mph 95% 0.01 in 19 W/m2
16:26 36.7 °F 35.4 °F 30.3 in NW 4 mph 7 mph 95% 0.01 in 19 W/m2
16:31 36.7 °F 35.1 °F 30.3 in WNW 2 mph 8 mph 94% 0.01 in 14 W/m2
16:36 36.7 °F 35.1 °F 30.3 in WNW 2 mph 3 mph 94% 0.01 in 16 W/m2
16:41 36.7 °F 35.1 °F 30.3 in WNW 2 mph 4 mph 94% 0.01 in 12 W/m2
16:46 36.7 °F 35.1 °F 30.3 in West 8.1 mph 8 mph 94% 0.01 in 11 W/m2
16:51 36.9 °F 35.2 °F 30.3 in West 2.9 mph 4 mph 94% 0.01 in 9 W/m2
16:56 36.9 °F 35.2 °F 30.3 in WNW 2.9 mph 5 mph 94% 0.01 in 5 W/m2
17:01 36.9 °F 35.2 °F 30.3 in West 2 mph 6 mph 94% 0.01 in 0 W/m2
17:06 36.9 °F 35.2 °F 30.3 in Calm   7 mph 94% 0.01 in 0 W/m2
17:11 36.9 °F 35.2 °F 30.3 in Calm   3 mph 94% 0 in 0 W/m2
17:16 36.9 °F 35.2 °F 30.3 in NW 2.9 mph 3 mph 94% 0 in 0 W/m2
17:21 36.9 °F 35.2 °F 30.3 in NW 2.9 mph 3 mph 94% 0 in 0 W/m2
17:26 36.9 °F 35.2 °F 30.3 in Calm   3 mph 94% 0 in 0 W/m2
17:31 36.9 °F 35.2 °F 30.3 in Calm   1 mph 94% 0 in 0 W/m2
17:36 36.9 °F 35.2 °F 30.3 in NW 2.9 mph 3 mph 94% 0 in 0 W/m2
17:41 36.9 °F 35.2 °F 30.3 in Calm   4 mph 94% 0 in 0 W/m2
17:46 36.9 °F 35.2 °F 30.3 in WSW 0.9 mph 3 mph 94% 0.01 in 0 W/m2
17:51 36.9 °F 35.2 °F 30.3 in West 2 mph 4 mph 94% 0.01 in 0 W/m2
17:56 36.9 °F 35.2 °F 30.3 in Calm   1 mph 94% 0.01 in 0 W/m2
18:01 36.9 °F 35.2 °F 30.3 in NW 2 mph 2 mph 94% 0.01 in 0 W/m2
18:06 37 °F 35.4 °F 30.3 in NW 4.9 mph 5 mph 94% 0.01 in 0 W/m2
18:11 37 °F 35.4 °F 30.3 in NW 2 mph 5 mph 94% 0.01 in 0 W/m2
18:16 37 °F 35.4 °F 30.3 in WNW 2.9 mph 4 mph 94% 0.01 in 0 W/m2
18:21 37.2 °F 35.6 °F 30.3 in WNW 2.9 mph 3 mph 94% 0.01 in 0 W/m2
18:26 37.2 °F 35.6 °F 30.3 in NW 4 mph 4 mph 94% 0.01 in 0 W/m2
18:31 37.4 °F 35.8 °F 30.3 in West 5 mph 5 mph 94% 0.01 in 0 W/m2
18:37 37.4 °F 35.8 °F 30.3 in WNW 2.9 mph 4 mph 94% 0.01 in 0 W/m2
18:42 37.4 °F 35.8 °F 30.3 in West 2 mph 4 mph 94% 0.01 in 0 W/m2
18:47 37.6 °F 36 °F 30.3 in West 6 mph 10 mph 94% 0 in 0 W/m2
18:52 37.6 °F 36 °F 30.3 in West 2.9 mph 11 mph 94% 0 in 0 W/m2
18:57 37.6 °F 36 °F 30.3 in WNW 2 mph 6 mph 94% 0 in 0 W/m2
19:02 37.6 °F 36 °F 30.3 in North 2.9 mph 8 mph 94% 0 in 0 W/m2
19:07 37.8 °F 36.1 °F 30.3 in West 2.9 mph 7 mph 94% 0 in 0 W/m2
19:12 37.8 °F 36.5 °F 30.3 in North 2.9 mph 13 mph 95% 0 in 0 W/m2
19:17 37.8 °F 36.5 °F 30.3 in NW 6.9 mph 10 mph 95% 0 in 0 W/m2
19:22 37.8 °F 36.5 °F 30.3 in WNW 4.9 mph 12 mph 95% 0 in 0 W/m2
19:27 37.8 °F 36.1 °F 30.3 in WNW 4 mph 8 mph 94% 0 in 0 W/m2
19:32 37.8 °F 36.1 °F 30.3 in West 2.9 mph 8 mph 94% 0.01 in 0 W/m2
19:37 37.9 °F 36.3 °F 30.3 in WSW 8.9 mph 11 mph 94% 0.01 in 0 W/m2
19:42 37.9 °F 36.3 °F 30.3 in WNW 4.9 mph 10 mph 94% 0.01 in 0 W/m2
19:47 37.9 °F 36.3 °F 30.3 in WNW 2.9 mph 14 mph 94% 0.01 in 0 W/m2
19:52 38.1 °F 36.5 °F 30.3 in WSW 4.9 mph 11 mph 94% 0.01 in 0 W/m2
19:57 38.1 °F 36.5 °F 30.3 in West 4 mph 12 mph 94% 0.01 in 0 W/m2
20:02 38.1 °F 36.5 °F 30.3 in NW 8.1 mph 9 mph 94% 0.01 in 0 W/m2
20:07 38.1 °F 36.5 °F 30.3 in WNW 6.9 mph 9 mph 94% 0.01 in 0 W/m2
20:12 38.1 °F 36.5 °F 30.3 in West 6.9 mph 11 mph 94% 0.01 in 0 W/m2
20:17 38.3 °F 36.7 °F 30.2 in West 4 mph 11 mph 94% 0.01 in 0 W/m2
20:22 38.3 °F 36.7 °F 30.2 in WSW 4.9 mph 12 mph 94% 0.01 in 0 W/m2
20:27 38.3 °F 36.7 °F 30.2 in West 2.9 mph 8 mph 94% 0.01 in 0 W/m2
20:32 38.3 °F 36.7 °F 30.2 in West 0.9 mph 12 mph 94% 0 in 0 W/m2
20:37 38.3 °F 36.7 °F 30.3 in WNW 4.9 mph 9 mph 94% 0 in 0 W/m2
20:42 38.5 °F 36.9 °F 30.3 in West 6 mph 12 mph 94% 0 in 0 W/m2
20:47 38.5 °F 36.9 °F 30.3 in WSW 6.9 mph 10 mph 94% 0 in 0 W/m2
20:52 38.5 °F 36.9 °F 30.3 in WNW 8.1 mph 12 mph 94% 0 in 0 W/m2
20:57 38.5 °F 36.9 °F 30.3 in West 2.9 mph 8 mph 94% 0 in 0 W/m2
21:02 38.5 °F 36.9 °F 30.3 in WNW 6.9 mph 12 mph 94% 0 in 0 W/m2
21:07 38.5 °F 37.2 °F 30.3 in WNW 2.9 mph 9 mph 95% 0 in 0 W/m2
21:12 38.5 °F 37.2 °F 30.2 in WNW 4 mph 8 mph 95% 0 in 0 W/m2
21:17 38.5 °F 37.2 °F 30.2 in WNW 4.9 mph 13 mph 95% 0 in 0 W/m2
21:22 38.5 °F 37.2 °F 30.2 in WNW 8.1 mph 8 mph 95% 0 in 0 W/m2
21:27 38.5 °F 37.2 °F 30.2 in WNW 4 mph 13 mph 95% 0.01 in 0 W/m2
21:32 38.5 °F 37.2 °F 30.3 in WSW 2.9 mph 6 mph 95% 0.01 in 0 W/m2
21:37 38.5 °F 37.2 °F 30.3 in WNW 2.9 mph 10 mph 95% 0.01 in 0 W/m2
21:42 38.3 °F 37 °F 30.3 in WNW 6 mph 9 mph 95% 0.01 in 0 W/m2
21:47 38.3 °F 37 °F 30.3 in NNW 4 mph 6 mph 95% 0.01 in 0 W/m2
21:52 38.3 °F 37 °F 30.3 in West 2.9 mph 10 mph 95% 0.01 in 0 W/m2
21:57 38.3 °F 37 °F 30.3 in WNW 2.9 mph 7 mph 95% 0.02 in 0 W/m2
22:02 38.3 °F 37 °F 30.3 in West 0.9 mph 5 mph 95% 0.02 in 0 W/m2
22:07 38.3 °F 37 °F 30.3 in NNE 4.9 mph 9 mph 95% 0.02 in 0 W/m2
22:12 38.3 °F 37 °F 30.2 in NW 8.9 mph 13 mph 95% 0.02 in 0 W/m2
22:17 38.3 °F 37 °F 30.3 in West 8.1 mph 11 mph 95% 0.02 in 0 W/m2
22:22 38.3 °F 37 °F 30.3 in West 6 mph 6 mph 95% 0.02 in 0 W/m2
22:27 38.3 °F 37 °F 30.3 in NW 2.9 mph 11 mph 95% 0.02 in 0 W/m2
22:32 38.5 °F 37.2 °F 30.3 in West 4 mph 10 mph 95% 0.02 in 0 W/m2
22:37 38.5 °F 37.2 °F 30.3 in WSW 8.1 mph 12 mph 95% 0.02 in 0 W/m2
22:42 38.5 °F 37.2 °F 30.3 in WSW 4 mph 8 mph 95% 0.02 in 0 W/m2
22:47 38.5 °F 37.2 °F 30.3 in NW 4.9 mph 11 mph 95% 0.02 in 0 W/m2
22:52 38.3 °F 37 °F 30.3 in NW 4 mph 9 mph 95% 0.02 in 0 W/m2
22:57 38.5 °F 37.2 °F 30.3 in West 2.9 mph 7 mph 95% 0.01 in 0 W/m2
23:02 38.3 °F 37 °F 30.3 in NW 12.1 mph 14 mph 95% 0.01 in 0 W/m2
23:07 38.5 °F 37.2 °F 30.3 in West 8.9 mph 10 mph 95% 0.01 in 0 W/m2
23:12 38.5 °F 37.2 °F 30.3 in NW 4 mph 14 mph 95% 0.01 in 0 W/m2
23:17 38.5 °F 37.2 °F 30.3 in NW 4.9 mph 7 mph 95% 0.01 in 0 W/m2
23:22 38.5 °F 37.2 °F 30.3 in West 11 mph 14 mph 95% 0 in 0 W/m2
23:27 38.5 °F 37.2 °F 30.3 in WNW 8.1 mph 13 mph 95% 0 in 0 W/m2
23:32 38.5 °F 37.2 °F 30.3 in NW 4.9 mph 9 mph 95% 0 in 0 W/m2
23:37 38.5 °F 37.2 °F 30.3 in WSW 4 mph 10 mph 95% 0 in 0 W/m2
23:42 38.5 °F 37.2 °F 30.3 in West 6 mph 11 mph 95% 0 in 0 W/m2
23:47 38.5 °F 37.2 °F 30.3 in WNW 4 mph 8 mph 95% 0 in 0 W/m2
23:52 38.5 °F 37.2 °F 30.3 in WNW 4 mph 9 mph 95% 0 in 0 W/m2
23:57 38.3 °F 37 °F 30.3 in West 10.1 mph 12 mph 95% 0 in 0 W/m2
Juneau County Weather
Compliments of Weather Underground - 4 mb